CYTQ

Tasiujaq Airport

Tasiujaq, Quebec, Canada
TAF CYTQ 201338Z 2014/2021 29020G30KT P6SM FEW020 BECMG 2014/2016 29015KT BECMG 2018/2020 30012KT RMK NXT FCST WILL BE ISSUED AT 211345Z
Issued Valid From Valid To
Apr-20 @ 13:38 UTC
(5 hours ago)
Apr-20 @ 14:00 UTC
(5 hours ago)
Apr-20 @ 21:00 UTC
(in 2 hours)
Apr-20 @ 14:00 to Apr-20 @ 21:00
TAF CYTQ 201338Z 2014/2021 29020G30KT P6SM FEW020
Wind Visibility Clouds
290° at 20 knots
 Gusting to 30 knots
Greater than 6 miles
  • Few at 2,000' AGL
Expired Click to View Apr-20 @ 14:00 to Apr-20 @ 18:00
BECMG 2014/2016 29015KT
Wind Visibility Clouds
290° at 15 knots Greater than 6 miles
  • Few at 2,000' AGL
Becoming Apr-20 @ 18:00 to Apr-20 @ 21:00
BECMG 2018/2020 30012KT RMK NXT FCST WILL BE ISSUED AT 211345Z
Wind Visibility Clouds
300° at 12 knots Greater than 6 miles
  • Few at 2,000' AGL
TAF CYTQ 201338Z 2014/2021 29020G30KT P6SM FEW020 BECMG 2014/2016 29015KT BECMG 2018/2020 30012KT RMK NXT FCST WILL BE ISSUED AT 211345Z
Issued Apr-20 @ 13:38 UTC
(5 hours ago)
Valid From Apr-20 @ 14:00 UTC
(5 hours ago)
Valid To Apr-20 @ 21:00 UTC
(in 2 hours)
Apr-20 @ 14:00 - Apr-20 @ 21:00
Wind Visibility
290° at 20 knots
 Gusting to 30 knots
Greater than 6 miles
Clouds
  • Few at 2,000' AGL
Apr-20 @ 14:00 - Apr-20 @ 18:00
Wind Visibility
290° at 15 knots Greater than 6 miles
Clouds
  • Few at 2,000' AGL
Becoming Apr-20 @ 18:00 - Apr-20 @ 21:00
Wind Visibility
300° at 12 knots Greater than 6 miles
Clouds
  • Few at 2,000' AGL